Marseillais 6 — FQSJ — position and weather

sailwx.info

Track history (hours):
 
Tides and Currents Weather Stations Pressure Air Temp Water Temp Dewpoint Dewpoint Depression Visibility Wind Speed Wind Dir Waves Ship Positions

Marseillais 6

Last reported at 2018-Feb-16 18:38 UTC. Time now 2018-Feb-18 19:58 UTC.
Position N 43°21' E 005°19'.

Length 35 m; draft 5 m.

Type: Tug. MMSI: 227016900.

Date/timePositionNaut miles runAvg speedWind from/ knotsBaromVisibWave heightAir tempDewpointWater temp
2018-Feb-16 18:38N 43°21' E 005°19'1 4.3
2018-Feb-16 18:31N 43°21' E 005°19'1 2.1
2018-Feb-16 17:58N 43°20' E 005°17'2 4.8
2018-Feb-16 17:28N 43°19' E 005°15'2 3.3
2018-Feb-16 16:58N 43°19' E 005°12'12 5.2
2018-Feb-16 14:43N 43°22' E 004°57'0 2.1
2018-Feb-16 14:30N 43°23' E 004°57'2 4.5
2018-Feb-16 14:00N 43°24' E 004°54'1 2.9
2018-Feb-16 13:30N 43°25' E 004°53'1 1.1
2018-Feb-16 13:00N 43°26' E 004°54'0 0.0
2018-Feb-16 12:30N 43°26' E 004°54'0 0.0
2018-Feb-16 12:00N 43°26' E 004°54'0 0.0
2018-Feb-16 11:31N 43°26' E 004°54'0 0.0
2018-Feb-16 11:00N 43°26' E 004°54'0 0.0
2018-Feb-16 10:30N 43°26' E 004°54'0 0.0
2018-Feb-16 10:01N 43°26' E 004°54'0 0.9
2018-Feb-16 09:30N 43°25' E 004°53'1 2.4
2018-Feb-16 09:00N 43°24' E 004°54'0 0.9
2018-Feb-16 08:29N 43°25' E 004°54'0 0.4
2018-Feb-16 08:01N 43°25' E 004°54'1 1.9
2018-Feb-16 07:29N 43°24' E 004°55'2 3.8
2018-Feb-16 07:00N 43°26' E 004°54'0 0.0
2018-Feb-16 06:30N 43°26' E 004°54'0 0.0
2018-Feb-16 06:01N 43°26' E 004°54'0 0.0
2018-Feb-16 05:31N 43°26' E 004°54'0 0.0
2018-Feb-16 05:01N 43°26' E 004°54'0 0.0
2018-Feb-16 04:31N 43°26' E 004°54'0 0.0
2018-Feb-16 04:00N 43°26' E 004°54'0 0.6
2018-Feb-16 03:30N 43°26' E 004°54'1 1.9
2018-Feb-16 03:00N 43°26' E 004°52'0 0.8
2018-Feb-16 02:31N 43°25' E 004°53'1 1.4
2018-Feb-16 02:01N 43°25' E 004°53'0 0.8
2018-Feb-16 01:30N 43°26' E 004°54'0 0.0
2018-Feb-16 01:00N 43°26' E 004°54'0 0.0
2018-Feb-16 00:30N 43°26' E 004°54'0 0.0
2018-Feb-16 00:00N 43°26' E 004°54'0 0.0
2018-Feb-15 23:31N 43°26' E 004°54'0 0.0
2018-Feb-15 23:01N 43°26' E 004°54'0 0.0
2018-Feb-15 22:31N 43°26' E 004°54'0 0.0
2018-Feb-15 22:00N 43°26' E 004°54'0 0.0
2018-Feb-15 21:31N 43°26' E 004°54'0 0.0
2018-Feb-15 21:00N 43°26' E 004°54'0 0.0
2018-Feb-15 20:30N 43°26' E 004°54'0 0.0
2018-Feb-15 20:00N 43°26' E 004°54'0 0.0
2018-Feb-15 19:30N 43°26' E 004°54'0 0.0
2018-Feb-15 19:00N 43°26' E 004°54'0 0.0
2018-Feb-15 18:31N 43°26' E 004°54'0 0.0
2018-Feb-15 18:00N 43°26' E 004°54'0 0.0
2018-Feb-15 17:30N 43°26' E 004°54'0 0.0
2018-Feb-15 17:00N 43°26' E 004°54'0 0.0
2018-Feb-15 16:30N 43°26' E 004°54'1 2.6
2018-Feb-15 15:59N 43°24' E 004°53'0 0.1
2018-Feb-15 15:31N 43°24' E 004°53'0 0.0
2018-Feb-15 15:00N 43°24' E 004°53'0 0.2
2018-Feb-15 14:31N 43°25' E 004°53'1 1.0
2018-Feb-15 14:00N 43°25' E 004°53'1 1.9
2018-Feb-15 13:30N 43°26' E 004°52'0 0.0
2018-Feb-15 12:57N 43°26' E 004°52'1 2.7
2018-Feb-15 12:30N 43°26' E 004°54'0 0.0
2018-Feb-15 12:00N 43°26' E 004°54'0 0.0
2018-Feb-15 11:31N 43°26' E 004°54'0 0.0
2018-Feb-15 11:00N 43°26' E 004°54'0 0.0
2018-Feb-15 10:31N 43°26' E 004°54'0 0.0
2018-Feb-15 10:01N 43°26' E 004°54'0 0.0
2018-Feb-15 09:30N 43°26' E 004°54'2 3.8
2018-Feb-15 08:58N 43°24' E 004°56'3 5.5
2018-Feb-15 08:31N 43°24' E 004°59'0 0.0
2018-Feb-15 08:01N 43°24' E 004°59'0 0.0
2018-Feb-15 07:30N 43°24' E 004°59'0 0.0
2018-Feb-15 07:01N 43°24' E 004°59'0 0.0
2018-Feb-15 06:30N 43°24' E 004°59'0 0.0
2018-Feb-15 06:01N 43°24' E 004°59'0 0.0
2018-Feb-15 05:30N 43°24' E 004°59'0 0.0
2018-Feb-15 05:01N 43°24' E 004°59'0 0.0
2018-Feb-15 04:31N 43°24' E 004°59'0 0.0
2018-Feb-15 04:01N 43°24' E 004°59'0 0.0
2018-Feb-15 03:31N 43°24' E 004°59'0 0.0
2018-Feb-15 03:00N 43°24' E 004°59'0 0.0
2018-Feb-15 02:31N 43°24' E 004°59'0 0.0
2018-Feb-15 02:00N 43°24' E 004°59'0 0.0
2018-Feb-15 01:30N 43°24' E 004°59'0 0.0
2018-Feb-15 01:01N 43°24' E 004°59'0 0.0
2018-Feb-15 00:31N 43°24' E 004°59'0 0.0
2018-Feb-15 00:01N 43°24' E 004°59'0 0.0
2018-Feb-14 23:30N 43°24' E 004°59'0 0.9
2018-Feb-14 23:00N 43°24' E 004°60'0 0.1
2018-Feb-14 22:30N 43°24' E 004°60'0 0.4
2018-Feb-14 21:59N 43°24' E 004°59'0 0.6
2018-Feb-14 21:30N 43°24' E 004°59'0 0.0
2018-Feb-14 21:00N 43°24' E 004°59'0 0.0
2018-Feb-14 20:31N 43°24' E 004°59'0 0.0
2018-Feb-14 20:00N 43°24' E 004°59'0 0.0
2018-Feb-14 19:30N 43°24' E 004°59'0 0.0
2018-Feb-14 19:00N 43°24' E 004°59'0 0.0
2018-Feb-14 18:30N 43°24' E 004°59'0 0.0
2018-Feb-14 18:00N 43°24' E 004°59'0 0.0
2018-Feb-14 17:30N 43°24' E 004°59'0 0.0
2018-Feb-14 17:01N 43°24' E 004°59'0 0.0
2018-Feb-14 16:31N 43°24' E 004°59'0 0.0
2018-Feb-14 15:59N 43°24' E 004°59'0 0.0
2018-Feb-14 15:31N 43°24' E 004°59'0 0.0
2018-Feb-14 15:01N 43°24' E 004°59'0 0.0
2018-Feb-14 14:30N 43°24' E 004°59'0 0.0
2018-Feb-14 14:00N 43°24' E 004°59'0 0.0
2018-Feb-14 13:31N 43°24' E 004°59'0 0.0
2018-Feb-14 13:00N 43°24' E 004°59'0 0.0
2018-Feb-14 12:30N 43°24' E 004°59'0 0.0
2018-Feb-14 12:00N 43°24' E 004°59'0 0.0
2018-Feb-14 11:30N 43°24' E 004°59'0 0.0
2018-Feb-14 11:00N 43°24' E 004°59'0 0.0
2018-Feb-14 10:31N 43°24' E 004°59'0 0.0
2018-Feb-14 10:01N 43°24' E 004°59'0 0.0
2018-Feb-14 09:29N 43°24' E 004°59'0 0.0
2018-Feb-14 09:00N 43°24' E 004°59'0 0.0
2018-Feb-14 08:30N 43°24' E 004°59'0 0.0
2018-Feb-14 08:01N 43°24' E 004°59'0 0.0
2018-Feb-14 07:31N 43°24' E 004°59'0 0.0
2018-Feb-14 07:01N 43°24' E 004°59'0 0.0
2018-Feb-14 06:30N 43°24' E 004°59'0 0.0
2018-Feb-14 06:01N 43°24' E 004°59'0 0.0
2018-Feb-14 05:30N 43°24' E 004°59'0 0.0
2018-Feb-14 05:01N 43°24' E 004°59'0 0.0
2018-Feb-14 04:30N 43°24' E 004°59'0 0.0
2018-Feb-14 04:01N 43°24' E 004°59'0 0.0
2018-Feb-14 03:30N 43°24' E 004°59'0 0.0
2018-Feb-14 03:00N 43°24' E 004°59'0 0.0
2018-Feb-14 02:30N 43°24' E 004°59'0 0.0
2018-Feb-14 02:00N 43°24' E 004°59'0 0.0
2018-Feb-14 01:31N 43°24' E 004°59'0 0.0
2018-Feb-14 01:00N 43°24' E 004°59'2 3.4
2018-Feb-14 00:30N 43°24' E 004°57'3 6.8
2018-Feb-14 00:00N 43°25' E 004°53'0 0.3
2018-Feb-13 23:30N 43°25' E 004°52'5 9.7
2018-Feb-13 23:00N 43°23' E 004°59'1 1.2
2018-Feb-13 22:31N 43°24' E 004°59'0 0.0
2018-Feb-13 22:00N 43°24' E 004°59'0 0.0
2018-Feb-13 21:31N 43°24' E 004°59'0 0.0
2018-Feb-13 21:00N 43°24' E 004°59'0 0.0
2018-Feb-13 20:31N 43°24' E 004°59'0 0.0
2018-Feb-13 20:00N 43°24' E 004°59'0 0.0
2018-Feb-13 19:31N 43°24' E 004°59'0 0.0
2018-Feb-13 19:01N 43°24' E 004°59'0 0.0
2018-Feb-13 18:31N 43°24' E 004°59'0 0.0
2018-Feb-13 18:00N 43°24' E 004°59'0 0.0
2018-Feb-13 17:31N 43°24' E 004°59'0 0.0
2018-Feb-13 17:01N 43°24' E 004°59'0 0.0
2018-Feb-13 16:30N 43°24' E 004°59'0 0.0
2018-Feb-13 16:00N 43°24' E 004°59'0 0.0
2018-Feb-13 15:30N 43°24' E 004°59'0 0.0
2018-Feb-13 15:00N 43°24' E 004°59'0 0.0
2018-Feb-13 14:30N 43°24' E 004°59'0 0.0
2018-Feb-13 14:00N 43°24' E 004°59'0 0.0
2018-Feb-13 13:30N 43°24' E 004°59'0 0.0
2018-Feb-13 13:01N 43°24' E 004°59'0 0.0
2018-Feb-13 12:31N 43°24' E 004°59'1 1.4
2018-Feb-13 12:01N 43°23' E 004°59'1 2.3
2018-Feb-13 11:29N 43°24' E 004°60'0 0.6
2018-Feb-13 11:01N 43°24' E 004°59'610.8
2018-Feb-13 10:30N 43°24' E 004°52'1 1.7
2018-Feb-13 10:00N 43°25' E 004°51'1 1.2
2018-Feb-13 09:30N 43°24' E 004°52'510.2
2018-Feb-13 09:00N 43°23' E 004°58'0 0.9
2018-Feb-13 08:31N 43°24' E 004°59'1 1.4
2018-Feb-13 08:00N 43°24' E 004°60'1 1.2
2018-Feb-13 07:31N 43°24' E 004°59'0 0.0
2018-Feb-13 07:01N 43°24' E 004°59'0 0.0
2018-Feb-13 06:31N 43°24' E 004°59'0 0.0
2018-Feb-13 06:00N 43°24' E 004°59'0 0.0
2018-Feb-13 05:31N 43°24' E 004°59'0 0.0
2018-Feb-13 05:01N 43°24' E 004°59'0 0.0
2018-Feb-13 04:31N 43°24' E 004°59'0 0.8
2018-Feb-13 04:00N 43°23' E 004°59'1 1.4
2018-Feb-13 03:30N 43°24' E 004°60'0 1.0
2018-Feb-13 03:00N 43°24' E 004°59'0 0.0
2018-Feb-13 02:31N 43°24' E 004°59'0 0.0
2018-Feb-13 02:00N 43°24' E 004°59'0 0.0
2018-Feb-13 01:31N 43°24' E 004°59'0 0.0
2018-Feb-13 01:01N 43°24' E 004°59'0 0.9
2018-Feb-13 00:30N 43°24' E 004°60'0 0.1
2018-Feb-13 00:01N 43°24' E 004°60'0 0.8
2018-Feb-12 23:30N 43°24' E 004°59'0 0.3
2018-Feb-12 23:00N 43°24' E 004°59'0 0.0
2018-Feb-12 22:30N 43°24' E 004°59'0 0.0
2018-Feb-12 22:01N 43°24' E 004°59'0 0.0
2018-Feb-12 21:31N 43°24' E 004°59'0 0.0
2018-Feb-12 21:01N 43°24' E 004°59'0 0.0
2018-Feb-12 20:30N 43°24' E 004°59'0 0.0
2018-Feb-12 20:00N 43°24' E 004°59'0 0.0
2018-Feb-12 19:30N 43°24' E 004°59'0 0.0
2018-Feb-12 19:00N 43°24' E 004°59'0 0.0
2018-Feb-12 18:31N 43°24' E 004°59'0 0.0
2018-Feb-12 18:01N 43°24' E 004°59'0 0.0
2018-Feb-12 17:30N 43°24' E 004°59'0 0.0
2018-Feb-12 17:00N 43°24' E 004°59'0 0.0
2018-Feb-12 16:30N 43°24' E 004°59'0 0.0
2018-Feb-12 16:00N 43°24' E 004°59'0 0.0
2018-Feb-12 15:30N 43°24' E 004°59'0 0.0
2018-Feb-12 15:01N 43°24' E 004°59'0 0.0
2018-Feb-12 14:31N 43°24' E 004°59'0 0.0
2018-Feb-12 14:00N 43°24' E 004°59'0 0.0
2018-Feb-12 13:30N 43°24' E 004°59'0 0.0
2018-Feb-12 13:01N 43°24' E 004°59'1 2.7
2018-Feb-12 12:30N 43°24' E 004°57'510.3
2018-Feb-12 12:01N 43°25' E 004°50'0 0.3
2018-Feb-12 11:30N 43°25' E 004°50'0 1.0
2018-Feb-12 11:00N 43°25' E 004°51'2 4.0
2018-Feb-12 10:30N 43°24' E 004°53'0 0.3
2018-Feb-12 10:00N 43°24' E 004°53'2 4.9
2018-Feb-12 09:30N 43°25' E 004°50'0 0.1
2018-Feb-12 09:00N 43°25' E 004°50'2 3.3
2018-Feb-12 08:30N 43°24' E 004°52'1 2.1
2018-Feb-12 08:00N 43°25' E 004°53'0 0.0
2018-Feb-12 07:30N 43°25' E 004°53'0 0.7
2018-Feb-12 07:00N 43°24' E 004°53'3 5.1
2018-Feb-12 06:30N 43°24' E 004°56'2 3.9
2018-Feb-12 06:00N 43°24' E 004°59'0 0.0
2018-Feb-12 05:30N 43°24' E 004°59'0 0.0
2018-Feb-12 05:00N 43°24' E 004°59'510.0
2018-Feb-12 04:30N 43°24' E 004°52'1 2.0
2018-Feb-12 04:01N 43°24' E 004°54'4 7.9
2018-Feb-12 03:31N 43°24' E 004°59'0 0.0
2018-Feb-12 03:00N 43°24' E 004°59'0 0.0
2018-Feb-12 02:30N 43°24' E 004°59'0 0.0
2018-Feb-12 02:01N 43°24' E 004°59'0 0.0
2018-Feb-12 01:31N 43°24' E 004°59'0 0.0
2018-Feb-12 01:00N 43°24' E 004°59'0 0.0
2018-Feb-12 00:31N 43°24' E 004°59'0 0.0
2018-Feb-12 00:00N 43°24' E 004°59'0 0.0
2018-Feb-11 23:30N 43°24' E 004°59'0 0.0
2018-Feb-11 23:01N 43°24' E 004°59'0 0.0
2018-Feb-11 22:31N 43°24' E 004°59'0 0.0
2018-Feb-11 22:01N 43°24' E 004°59'0 0.0
2018-Feb-11 21:31N 43°24' E 004°59'1 1.1
2018-Feb-11 21:00N 43°24' E 004°60'1 1.6
2018-Feb-11 20:31N 43°24' E 004°59'0 0.7
2018-Feb-11 20:01N 43°24' E 004°59'0 0.2
2018-Feb-11 19:30N 43°24' E 004°59'0 0.9
2018-Feb-11 19:01N 43°24' E 004°60'1 1.1
2018-Feb-11 18:30N 43°24' E 004°59'0 0.0
2018-Feb-11 18:01N 43°24' E 004°59'0 0.0
2018-Feb-11 17:30N 43°24' E 004°59'0 0.6
2018-Feb-11 17:00N 43°24' E 004°59'4 7.9
2018-Feb-11 16:30N 43°25' E 004°54'2 3.4
2018-Feb-11 16:01N 43°24' E 004°56'2 4.9
2018-Feb-11 15:31N 43°24' E 004°59'0 0.0
2018-Feb-11 15:01N 43°24' E 004°59'0 0.0
2018-Feb-11 14:31N 43°24' E 004°59'0 0.0
2018-Feb-11 14:01N 43°24' E 004°59'0 0.0
2018-Feb-11 13:31N 43°24' E 004°59'0 0.0
2018-Feb-11 13:00N 43°24' E 004°59'0 0.0
2018-Feb-11 12:30N 43°24' E 004°59'0 0.0
2018-Feb-11 12:00N 43°24' E 004°59'0 0.0
2018-Feb-11 11:31N 43°24' E 004°59'0 0.0
2018-Feb-11 11:01N 43°24' E 004°59'3 5.9
2018-Feb-11 10:31N 43°24' E 004°55'3 5.9
2018-Feb-11 10:00N 43°25' E 004°51'0 0.5
2018-Feb-11 09:30N 43°24' E 004°51'510.5
2018-Feb-11 09:00N 43°23' E 004°58'1 1.5
2018-Feb-11 08:31N 43°24' E 004°59'0 0.0
2018-Feb-11 08:01N 43°24' E 004°59'0 0.1
2018-Feb-11 07:30N 43°24' E 004°59'4 8.8
2018-Feb-11 07:00N 43°25' E 004°53'1 2.0
2018-Feb-11 06:31N 43°26' E 004°54'0 0.0
2018-Feb-11 06:01N 43°26' E 004°54'0 0.0
2018-Feb-11 05:30N 43°26' E 004°54'0 0.0
2018-Feb-11 05:01N 43°26' E 004°54'0 0.0
2018-Feb-11 04:30N 43°26' E 004°54'0 0.0
2018-Feb-11 04:01N 43°26' E 004°54'0 0.0
2018-Feb-11 03:30N 43°26' E 004°54'0 0.0
2018-Feb-11 03:01N 43°26' E 004°54'0 0.0
2018-Feb-11 02:31N 43°26' E 004°54'0 0.0
2018-Feb-11 02:00N 43°26' E 004°54'0 0.0
2018-Feb-11 01:31N 43°26' E 004°54'1 1.7
2018-Feb-11 01:00N 43°25' E 004°53'2 3.9
2018-Feb-11 00:29N 43°24' E 004°51'2 4.6
2018-Feb-11 00:01N 43°25' E 004°53'1 1.1
2018-Feb-10 23:26N 43°26' E 004°54'0 0.0
2018-Feb-10 22:58N 43°26' E 004°54'0 0.0
2018-Feb-10 22:25N 43°26' E 004°54'0 0.0
2018-Feb-10 22:00N 43°26' E 004°54'0 0.0
2018-Feb-10 21:30N 43°26' E 004°54'0 0.0
2018-Feb-10 20:58N 43°26' E 004°54'0 0.0
2018-Feb-10 20:22N 43°26' E 004°54'0 0.0
2018-Feb-10 19:47N 43°26' E 004°54'0 0.0
2018-Feb-10 19:28N 43°26' E 004°54'0 0.0
2018-Feb-10 18:52N 43°26' E 004°54'0 0.0
2018-Feb-10 18:25N 43°26' E 004°54'3 6.1
2018-Feb-10 18:00N 43°25' E 004°51'0 0.7
2018-Feb-10 17:31N 43°25' E 004°50'2 4.8
2018-Feb-10 17:01N 43°24' E 004°53'1 1.8
2018-Feb-10 16:30N 43°24' E 004°52'2 3.7
2018-Feb-10 16:00N 43°25' E 004°50'0 0.1
2018-Feb-10 15:30N 43°25' E 004°50'0 0.4
2018-Feb-10 14:59N 43°25' E 004°50'2 4.6
2018-Feb-10 14:31N 43°25' E 004°53'1 1.2
2018-Feb-10 13:56N 43°26' E 004°54'0 0.0
2018-Feb-10 13:29N 43°26' E 004°54'0 0.0
2018-Feb-10 13:00N 43°26' E 004°54'0 0.0
2018-Feb-10 12:29N 43°26' E 004°54'0 0.0
2018-Feb-10 12:01N 43°26' E 004°54'0 0.0
2018-Feb-10 11:30N 43°26' E 004°54'0 0.0
2018-Feb-10 10:57N 43°26' E 004°54'0 0.0
2018-Feb-10 10:31N 43°26' E 004°54'0 0.0
2018-Feb-10 09:58N 43°26' E 004°54'0 0.0
2018-Feb-10 09:31N 43°26' E 004°54'0 0.0
2018-Feb-10 09:00N 43°26' E 004°54'0 0.0
2018-Feb-10 08:30N 43°26' E 004°54'0 0.0
2018-Feb-10 08:00N 43°26' E 004°54'0 0.0
2018-Feb-10 07:30N 43°26' E 004°54'0 0.0
2018-Feb-10 07:00N 43°26' E 004°54'0 0.0
2018-Feb-10 06:30N 43°26' E 004°54'0 0.0
2018-Feb-10 06:00N 43°26' E 004°54'0 0.0
2018-Feb-10 05:31N 43°26' E 004°54'0 0.0
2018-Feb-10 05:00N 43°26' E 004°54'0 0.0
2018-Feb-10 04:27N 43°26' E 004°54'0 0.0
2018-Feb-10 04:01N 43°26' E 004°54'0 0.0
2018-Feb-10 03:29N 43°26' E 004°54'0 0.0
2018-Feb-10 03:01N 43°26' E 004°54'0 0.0
2018-Feb-10 02:31N 43°26' E 004°54'0 0.0
2018-Feb-10 02:00N 43°26' E 004°54'0 0.0
2018-Feb-10 01:30N 43°26' E 004°54'0 0.0
2018-Feb-10 01:00N 43°26' E 004°54'0 0.0
2018-Feb-10 00:30N 43°26' E 004°54'0 0.0
2018-Feb-10 00:00N 43°26' E 004°54'0 0.0
2018-Feb-09 23:29N 43°26' E 004°54'0 0.0
2018-Feb-09 23:00N 43°26' E 004°54'0 0.0
2018-Feb-09 22:44N 43°26' E 004°54'0 0.0
2018-Feb-09 19:01N 43°26' E 004°54'0 0.0
2018-Feb-09 17:01N 43°26' E 004°54'0 0.0
2018-Feb-09 15:31N 43°26' E 004°54'1 0.4
2018-Feb-09 12:30N 43°25' E 004°53'1 0.0
2018-Feb-09 00:00N 43°25' E 004°53'4 0.3
2018-Feb-08 12:00N 43°23' E 004°58'4 0.7
2018-Feb-08 07:00N 43°26' E 004°54'0 0.0
2018-Feb-08 04:00N 43°26' E 004°54'0 0.0
2018-Feb-08 03:00N 43°26' E 004°54'0 0.0
2018-Feb-08 02:30N 43°26' E 004°54'0 0.0
2018-Feb-08 02:01N 43°26' E 004°54'0 0.0
2018-Feb-08 01:31N 43°26' E 004°54'0 0.0
2018-Feb-08 01:00N 43°26' E 004°54'0 0.0
2018-Feb-08 00:30N 43°26' E 004°54'0 0.0
2018-Feb-08 00:00N 43°26' E 004°54'0 0.0
2018-Feb-07 23:30N 43°26' E 004°54'0 0.0
2018-Feb-07 23:00N 43°26' E 004°54'0 0.0
2018-Feb-07 22:30N 43°26' E 004°54'0 0.0
2018-Feb-07 22:01N 43°26' E 004°54'0 0.0
2018-Feb-07 21:31N 43°26' E 004°54'0 0.0
2018-Feb-07 09:30N 43°26' E 004°54'0 0.0
2018-Feb-07 08:59N 43°26' E 004°54'0 0.0
2018-Feb-07 08:30N 43°26' E 004°54'0 0.0
2018-Feb-07 08:00N 43°26' E 004°54'0 0.0
2018-Feb-07 07:30N 43°26' E 004°54'0 0.0
2018-Feb-07 06:59N 43°26' E 004°54'0 0.0
2018-Feb-07 06:31N 43°26' E 004°54'0 0.0
2018-Feb-07 05:30N 43°26' E 004°54'0 0.0
2018-Feb-07 05:00N 43°26' E 004°54'0 0.0
2018-Feb-07 04:30N 43°26' E 004°54'0 0.0
2018-Feb-07 04:00N 43°26' E 004°54'0 0.0
2018-Feb-07 03:30N 43°26' E 004°54'0 0.0
2018-Feb-07 03:00N 43°26' E 004°54'0 0.0
2018-Feb-07 02:30N 43°26' E 004°54'0 0.0
2018-Feb-07 01:00N 43°26' E 004°54'0 0.0
2018-Feb-07 00:30N 43°26' E 004°54'0 0.0
2018-Feb-06 23:59N 43°26' E 004°54'0 0.0
2018-Feb-06 23:30N 43°26' E 004°54'0 0.0
2018-Feb-06 23:00N 43°26' E 004°54'0 0.0
2018-Feb-06 22:30N 43°26' E 004°54'0 0.0
2018-Feb-06 22:00N 43°26' E 004°54'0 0.0
2018-Feb-06 21:30N 43°26' E 004°54'0 0.0
2018-Feb-06 20:59N 43°26' E 004°54'0 0.0
2018-Feb-06 20:28N 43°26' E 004°54'0 0.0
2018-Feb-06 20:00N 43°26' E 004°54'0 0.0
2018-Feb-06 19:29N 43°26' E 004°54'0 0.0
2018-Feb-06 19:00N 43°26' E 004°54'  
Track history (hours):
 
Tides and Currents Weather Stations Pressure Air Temp Water Temp Dewpoint Dewpoint Depression Visibility Wind Speed Wind Dir Waves Ship Positions

Marseillais 6

Last reported at 2018-Feb-16 18:38 UTC. Time now 2018-Feb-18 19:58 UTC.
Position N 43°21' E 005°19'.

Length 35 m; draft 5 m.

Type: Tug. MMSI: 227016900.

Date/timePositionNaut miles runAvg speedWind from/ knotsBaromVisibWave heightAir tempDewpointWater temp
2018-Feb-16 18:38N 43°21' E 005°19'1 4.3
2018-Feb-16 18:31N 43°21' E 005°19'1 2.1
2018-Feb-16 17:58N 43°20' E 005°17'2 4.8
2018-Feb-16 17:28N 43°19' E 005°15'2 3.3
2018-Feb-16 16:58N 43°19' E 005°12'12 5.2
2018-Feb-16 14:43N 43°22' E 004°57'0 2.1
2018-Feb-16 14:30N 43°23' E 004°57'2 4.5
2018-Feb-16 14:00N 43°24' E 004°54'1 2.9
2018-Feb-16 13:30N 43°25' E 004°53'1 1.1
2018-Feb-16 13:00N 43°26' E 004°54'0 0.0
2018-Feb-16 12:30N 43°26' E 004°54'0 0.0
2018-Feb-16 12:00N 43°26' E 004°54'0 0.0
2018-Feb-16 11:31N 43°26' E 004°54'0 0.0
2018-Feb-16 11:00N 43°26' E 004°54'0 0.0
2018-Feb-16 10:30N 43°26' E 004°54'0 0.0
2018-Feb-16 10:01N 43°26' E 004°54'0 0.9
2018-Feb-16 09:30N 43°25' E 004°53'1 2.4
2018-Feb-16 09:00N 43°24' E 004°54'0 0.9
2018-Feb-16 08:29N 43°25' E 004°54'0 0.4
2018-Feb-16 08:01N 43°25' E 004°54'1 1.9
2018-Feb-16 07:29N 43°24' E 004°55'2 3.8
2018-Feb-16 07:00N 43°26' E 004°54'0 0.0
2018-Feb-16 06:30N 43°26' E 004°54'0 0.0
2018-Feb-16 06:01N 43°26' E 004°54'0 0.0
2018-Feb-16 05:31N 43°26' E 004°54'0 0.0
2018-Feb-16 05:01N 43°26' E 004°54'0 0.0
2018-Feb-16 04:31N 43°26' E 004°54'0 0.0
2018-Feb-16 04:00N 43°26' E 004°54'0 0.6
2018-Feb-16 03:30N 43°26' E 004°54'1 1.9
2018-Feb-16 03:00N 43°26' E 004°52'0 0.8
2018-Feb-16 02:31N 43°25' E 004°53'1 1.4
2018-Feb-16 02:01N 43°25' E 004°53'0 0.8
2018-Feb-16 01:30N 43°26' E 004°54'0 0.0
2018-Feb-16 01:00N 43°26' E 004°54'0 0.0
2018-Feb-16 00:30N 43°26' E 004°54'0 0.0
2018-Feb-16 00:00N 43°26' E 004°54'0 0.0
2018-Feb-15 23:31N 43°26' E 004°54'0 0.0
2018-Feb-15 23:01N 43°26' E 004°54'0 0.0
2018-Feb-15 22:31N 43°26' E 004°54'0 0.0
2018-Feb-15 22:00N 43°26' E 004°54'0 0.0
2018-Feb-15 21:31N 43°26' E 004°54'0 0.0
2018-Feb-15 21:00N 43°26' E 004°54'0 0.0
2018-Feb-15 20:30N 43°26' E 004°54'0 0.0
2018-Feb-15 20:00N 43°26' E 004°54'0 0.0
2018-Feb-15 19:30N 43°26' E 004°54'0 0.0
2018-Feb-15 19:00N 43°26' E 004°54'0 0.0
2018-Feb-15 18:31N 43°26' E 004°54'0 0.0
2018-Feb-15 18:00N 43°26' E 004°54'0 0.0
2018-Feb-15 17:30N 43°26' E 004°54'0 0.0
2018-Feb-15 17:00N 43°26' E 004°54'0 0.0
2018-Feb-15 16:30N 43°26' E 004°54'1 2.6
2018-Feb-15 15:59N 43°24' E 004°53'0 0.1
2018-Feb-15 15:31N 43°24' E 004°53'0 0.0
2018-Feb-15 15:00N 43°24' E 004°53'0 0.2
2018-Feb-15 14:31N 43°25' E 004°53'1 1.0
2018-Feb-15 14:00N 43°25' E 004°53'1 1.9
2018-Feb-15 13:30N 43°26' E 004°52'0 0.0
2018-Feb-15 12:57N 43°26' E 004°52'1 2.7
2018-Feb-15 12:30N 43°26' E 004°54'0 0.0
2018-Feb-15 12:00N 43°26' E 004°54'0 0.0
2018-Feb-15 11:31N 43°26' E 004°54'0 0.0
2018-Feb-15 11:00N 43°26' E 004°54'0 0.0
2018-Feb-15 10:31N 43°26' E 004°54'0 0.0
2018-Feb-15 10:01N 43°26' E 004°54'0 0.0
2018-Feb-15 09:30N 43°26' E 004°54'2 3.8
2018-Feb-15 08:58N 43°24' E 004°56'3 5.5
2018-Feb-15 08:31N 43°24' E 004°59'0 0.0
2018-Feb-15 08:01N 43°24' E 004°59'0 0.0
2018-Feb-15 07:30N 43°24' E 004°59'0 0.0
2018-Feb-15 07:01N 43°24' E 004°59'0 0.0
2018-Feb-15 06:30N 43°24' E 004°59'0 0.0
2018-Feb-15 06:01N 43°24' E 004°59'0 0.0
2018-Feb-15 05:30N 43°24' E 004°59'0 0.0
2018-Feb-15 05:01N 43°24' E 004°59'0 0.0
2018-Feb-15 04:31N 43°24' E 004°59'0 0.0
2018-Feb-15 04:01N 43°24' E 004°59'0 0.0
2018-Feb-15 03:31N 43°24' E 004°59'0 0.0
2018-Feb-15 03:00N 43°24' E 004°59'0 0.0
2018-Feb-15 02:31N 43°24' E 004°59'0 0.0
2018-Feb-15 02:00N 43°24' E 004°59'0 0.0
2018-Feb-15 01:30N 43°24' E 004°59'0 0.0
2018-Feb-15 01:01N 43°24' E 004°59'0 0.0
2018-Feb-15 00:31N 43°24' E 004°59'0 0.0
2018-Feb-15 00:01N 43°24' E 004°59'0 0.0
2018-Feb-14 23:30N 43°24' E 004°59'0 0.9
2018-Feb-14 23:00N 43°24' E 004°60'0 0.1
2018-Feb-14 22:30N 43°24' E 004°60'0 0.4
2018-Feb-14 21:59N 43°24' E 004°59'0 0.6
2018-Feb-14 21:30N 43°24' E 004°59'0 0.0
2018-Feb-14 21:00N 43°24' E 004°59'0 0.0
2018-Feb-14 20:31N 43°24' E 004°59'0 0.0
2018-Feb-14 20:00N 43°24' E 004°59'0 0.0
2018-Feb-14 19:30N 43°24' E 004°59'0 0.0
2018-Feb-14 19:00N 43°24' E 004°59'0 0.0
2018-Feb-14 18:30N 43°24' E 004°59'0 0.0
2018-Feb-14 18:00N 43°24' E 004°59'0 0.0
2018-Feb-14 17:30N 43°24' E 004°59'0 0.0
2018-Feb-14 17:01N 43°24' E 004°59'0 0.0
2018-Feb-14 16:31N 43°24' E 004°59'0 0.0
2018-Feb-14 15:59N 43°24' E 004°59'0 0.0
2018-Feb-14 15:31N 43°24' E 004°59'0 0.0
2018-Feb-14 15:01N 43°24' E 004°59'0 0.0
2018-Feb-14 14:30N 43°24' E 004°59'0 0.0
2018-Feb-14 14:00N 43°24' E 004°59'0 0.0
2018-Feb-14 13:31N 43°24' E 004°59'0 0.0
2018-Feb-14 13:00N 43°24' E 004°59'0 0.0
2018-Feb-14 12:30N 43°24' E 004°59'0 0.0
2018-Feb-14 12:00N 43°24' E 004°59'0 0.0
2018-Feb-14 11:30N 43°24' E 004°59'0 0.0
2018-Feb-14 11:00N 43°24' E 004°59'0 0.0
2018-Feb-14 10:31N 43°24' E 004°59'0 0.0
2018-Feb-14 10:01N 43°24' E 004°59'0 0.0
2018-Feb-14 09:29N 43°24' E 004°59'0 0.0
2018-Feb-14 09:00N 43°24' E 004°59'0 0.0
2018-Feb-14 08:30N 43°24' E 004°59'0 0.0
2018-Feb-14 08:01N 43°24' E 004°59'0 0.0
2018-Feb-14 07:31N 43°24' E 004°59'0 0.0
2018-Feb-14 07:01N 43°24' E 004°59'0 0.0
2018-Feb-14 06:30N 43°24' E 004°59'0 0.0
2018-Feb-14 06:01N 43°24' E 004°59'0 0.0
2018-Feb-14 05:30N 43°24' E 004°59'0 0.0
2018-Feb-14 05:01N 43°24' E 004°59'0 0.0
2018-Feb-14 04:30N 43°24' E 004°59'0 0.0
2018-Feb-14 04:01N 43°24' E 004°59'0 0.0
2018-Feb-14 03:30N 43°24' E 004°59'0 0.0
2018-Feb-14 03:00N 43°24' E 004°59'0 0.0
2018-Feb-14 02:30N 43°24' E 004°59'0 0.0
2018-Feb-14 02:00N 43°24' E 004°59'0 0.0
2018-Feb-14 01:31N 43°24' E 004°59'0 0.0
2018-Feb-14 01:00N 43°24' E 004°59'2 3.4
2018-Feb-14 00:30N 43°24' E 004°57'3 6.8
2018-Feb-14 00:00N 43°25' E 004°53'0 0.3
2018-Feb-13 23:30N 43°25' E 004°52'5 9.7
2018-Feb-13 23:00N 43°23' E 004°59'1 1.2
2018-Feb-13 22:31N 43°24' E 004°59'0 0.0
2018-Feb-13 22:00N 43°24' E 004°59'0 0.0
2018-Feb-13 21:31N 43°24' E 004°59'0 0.0
2018-Feb-13 21:00N 43°24' E 004°59'0 0.0
2018-Feb-13 20:31N 43°24' E 004°59'0 0.0
2018-Feb-13 20:00N 43°24' E 004°59'0 0.0
2018-Feb-13 19:31N 43°24' E 004°59'0 0.0
2018-Feb-13 19:01N 43°24' E 004°59'0 0.0
2018-Feb-13 18:31N 43°24' E 004°59'0 0.0
2018-Feb-13 18:00N 43°24' E 004°59'0 0.0
2018-Feb-13 17:31N 43°24' E 004°59'0 0.0
2018-Feb-13 17:01N 43°24' E 004°59'0 0.0
2018-Feb-13 16:30N 43°24' E 004°59'0 0.0
2018-Feb-13 16:00N 43°24' E 004°59'0 0.0
2018-Feb-13 15:30N 43°24' E 004°59'0 0.0
2018-Feb-13 15:00N 43°24' E 004°59'0 0.0
2018-Feb-13 14:30N 43°24' E 004°59'0 0.0
2018-Feb-13 14:00N 43°24' E 004°59'0 0.0
2018-Feb-13 13:30N 43°24' E 004°59'0 0.0
2018-Feb-13 13:01N 43°24' E 004°59'0 0.0
2018-Feb-13 12:31N 43°24' E 004°59'1 1.4
2018-Feb-13 12:01N 43°23' E 004°59'1 2.3
2018-Feb-13 11:29N 43°24' E 004°60'0 0.6
2018-Feb-13 11:01N 43°24' E 004°59'610.8
2018-Feb-13 10:30N 43°24' E 004°52'1 1.7
2018-Feb-13 10:00N 43°25' E 004°51'1 1.2
2018-Feb-13 09:30N 43°24' E 004°52'510.2
2018-Feb-13 09:00N 43°23' E 004°58'0 0.9
2018-Feb-13 08:31N 43°24' E 004°59'1 1.4
2018-Feb-13 08:00N 43°24' E 004°60'1 1.2
2018-Feb-13 07:31N 43°24' E 004°59'0 0.0
2018-Feb-13 07:01N 43°24' E 004°59'0 0.0
2018-Feb-13 06:31N 43°24' E 004°59'0 0.0
2018-Feb-13 06:00N 43°24' E 004°59'0 0.0
2018-Feb-13 05:31N 43°24' E 004°59'0 0.0
2018-Feb-13 05:01N 43°24' E 004°59'0 0.0
2018-Feb-13 04:31N 43°24' E 004°59'0 0.8
2018-Feb-13 04:00N 43°23' E 004°59'1 1.4
2018-Feb-13 03:30N 43°24' E 004°60'0 1.0
2018-Feb-13 03:00N 43°24' E 004°59'0 0.0
2018-Feb-13 02:31N 43°24' E 004°59'0 0.0
2018-Feb-13 02:00N 43°24' E 004°59'0 0.0
2018-Feb-13 01:31N 43°24' E 004°59'0 0.0
2018-Feb-13 01:01N 43°24' E 004°59'0 0.9
2018-Feb-13 00:30N 43°24' E 004°60'0 0.1
2018-Feb-13 00:01N 43°24' E 004°60'0 0.8
2018-Feb-12 23:30N 43°24' E 004°59'0 0.3
2018-Feb-12 23:00N 43°24' E 004°59'0 0.0
2018-Feb-12 22:30N 43°24' E 004°59'0 0.0
2018-Feb-12 22:01N 43°24' E 004°59'0 0.0
2018-Feb-12 21:31N 43°24' E 004°59'0 0.0
2018-Feb-12 21:01N 43°24' E 004°59'0 0.0
2018-Feb-12 20:30N 43°24' E 004°59'0 0.0
2018-Feb-12 20:00N 43°24' E 004°59'0 0.0
2018-Feb-12 19:30N 43°24' E 004°59'0 0.0
2018-Feb-12 19:00N 43°24' E 004°59'0 0.0
2018-Feb-12 18:31N 43°24' E 004°59'0 0.0
2018-Feb-12 18:01N 43°24' E 004°59'0 0.0
2018-Feb-12 17:30N 43°24' E 004°59'0 0.0
2018-Feb-12 17:00N 43°24' E 004°59'0 0.0
2018-Feb-12 16:30N 43°24' E 004°59'0 0.0
2018-Feb-12 16:00N 43°24' E 004°59'0 0.0
2018-Feb-12 15:30N 43°24' E 004°59'0 0.0
2018-Feb-12 15:01N 43°24' E 004°59'0 0.0
2018-Feb-12 14:31N 43°24' E 004°59'0 0.0
2018-Feb-12 14:00N 43°24' E 004°59'0 0.0
2018-Feb-12 13:30N 43°24' E 004°59'0 0.0
2018-Feb-12 13:01N 43°24' E 004°59'1 2.7
2018-Feb-12 12:30N 43°24' E 004°57'510.3
2018-Feb-12 12:01N 43°25' E 004°50'0 0.3
2018-Feb-12 11:30N 43°25' E 004°50'0 1.0
2018-Feb-12 11:00N 43°25' E 004°51'2 4.0
2018-Feb-12 10:30N 43°24' E 004°53'0 0.3
2018-Feb-12 10:00N 43°24' E 004°53'2 4.9
2018-Feb-12 09:30N 43°25' E 004°50'0 0.1
2018-Feb-12 09:00N 43°25' E 004°50'2 3.3
2018-Feb-12 08:30N 43°24' E 004°52'1 2.1
2018-Feb-12 08:00N 43°25' E 004°53'0 0.0
2018-Feb-12 07:30N 43°25' E 004°53'0 0.7
2018-Feb-12 07:00N 43°24' E 004°53'3 5.1
2018-Feb-12 06:30N 43°24' E 004°56'2 3.9
2018-Feb-12 06:00N 43°24' E 004°59'0 0.0
2018-Feb-12 05:30N 43°24' E 004°59'0 0.0
2018-Feb-12 05:00N 43°24' E 004°59'510.0
2018-Feb-12 04:30N 43°24' E 004°52'1 2.0
2018-Feb-12 04:01N 43°24' E 004°54'4 7.9
2018-Feb-12 03:31N 43°24' E 004°59'0 0.0
2018-Feb-12 03:00N 43°24' E 004°59'0 0.0
2018-Feb-12 02:30N 43°24' E 004°59'0 0.0
2018-Feb-12 02:01N 43°24' E 004°59'0 0.0
2018-Feb-12 01:31N 43°24' E 004°59'0 0.0
2018-Feb-12 01:00N 43°24' E 004°59'0 0.0
2018-Feb-12 00:31N 43°24' E 004°59'0 0.0
2018-Feb-12 00:00N 43°24' E 004°59'0 0.0
2018-Feb-11 23:30N 43°24' E 004°59'0 0.0
2018-Feb-11 23:01N 43°24' E 004°59'0 0.0
2018-Feb-11 22:31N 43°24' E 004°59'0 0.0
2018-Feb-11 22:01N 43°24' E 004°59'0 0.0
2018-Feb-11 21:31N 43°24' E 004°59'1 1.1
2018-Feb-11 21:00N 43°24' E 004°60'1 1.6
2018-Feb-11 20:31N 43°24' E 004°59'0 0.7
2018-Feb-11 20:01N 43°24' E 004°59'0 0.2
2018-Feb-11 19:30N 43°24' E 004°59'0 0.9
2018-Feb-11 19:01N 43°24' E 004°60'1 1.1
2018-Feb-11 18:30N 43°24' E 004°59'0 0.0
2018-Feb-11 18:01N 43°24' E 004°59'0 0.0
2018-Feb-11 17:30N 43°24' E 004°59'0 0.6
2018-Feb-11 17:00N 43°24' E 004°59'4 7.9
2018-Feb-11 16:30N 43°25' E 004°54'2 3.4
2018-Feb-11 16:01N 43°24' E 004°56'2 4.9
2018-Feb-11 15:31N 43°24' E 004°59'0 0.0
2018-Feb-11 15:01N 43°24' E 004°59'0 0.0
2018-Feb-11 14:31N 43°24' E 004°59'0 0.0
2018-Feb-11 14:01N 43°24' E 004°59'0 0.0
2018-Feb-11 13:31N 43°24' E 004°59'0 0.0
2018-Feb-11 13:00N 43°24' E 004°59'0 0.0
2018-Feb-11 12:30N 43°24' E 004°59'0 0.0
2018-Feb-11 12:00N 43°24' E 004°59'0 0.0
2018-Feb-11 11:31N 43°24' E 004°59'0 0.0
2018-Feb-11 11:01N 43°24' E 004°59'3 5.9
2018-Feb-11 10:31N 43°24' E 004°55'3 5.9
2018-Feb-11 10:00N 43°25' E 004°51'0 0.5
2018-Feb-11 09:30N 43°24' E 004°51'510.5
2018-Feb-11 09:00N 43°23' E 004°58'1 1.5
2018-Feb-11 08:31N 43°24' E 004°59'0 0.0
2018-Feb-11 08:01N 43°24' E 004°59'0 0.1
2018-Feb-11 07:30N 43°24' E 004°59'4 8.8
2018-Feb-11 07:00N 43°25' E 004°53'1 2.0
2018-Feb-11 06:31N 43°26' E 004°54'0 0.0
2018-Feb-11 06:01N 43°26' E 004°54'0 0.0
2018-Feb-11 05:30N 43°26' E 004°54'0 0.0
2018-Feb-11 05:01N 43°26' E 004°54'0 0.0
2018-Feb-11 04:30N 43°26' E 004°54'0 0.0
2018-Feb-11 04:01N 43°26' E 004°54'0 0.0
2018-Feb-11 03:30N 43°26' E 004°54'0 0.0
2018-Feb-11 03:01N 43°26' E 004°54'0 0.0
2018-Feb-11 02:31N 43°26' E 004°54'0 0.0
2018-Feb-11 02:00N 43°26' E 004°54'0 0.0
2018-Feb-11 01:31N 43°26' E 004°54'1 1.7
2018-Feb-11 01:00N 43°25' E 004°53'2 3.9
2018-Feb-11 00:29N 43°24' E 004°51'2 4.6
2018-Feb-11 00:01N 43°25' E 004°53'1 1.1
2018-Feb-10 23:26N 43°26' E 004°54'0 0.0
2018-Feb-10 22:58N 43°26' E 004°54'0 0.0
2018-Feb-10 22:25N 43°26' E 004°54'0 0.0
2018-Feb-10 22:00N 43°26' E 004°54'0 0.0
2018-Feb-10 21:30N 43°26' E 004°54'0 0.0
2018-Feb-10 20:58N 43°26' E 004°54'0 0.0
2018-Feb-10 20:22N 43°26' E 004°54'0 0.0
2018-Feb-10 19:47N 43°26' E 004°54'0 0.0
2018-Feb-10 19:28N 43°26' E 004°54'0 0.0
2018-Feb-10 18:52N 43°26' E 004°54'0 0.0
2018-Feb-10 18:25N 43°26' E 004°54'3 6.1
2018-Feb-10 18:00N 43°25' E 004°51'0 0.7
2018-Feb-10 17:31N 43°25' E 004°50'2 4.8
2018-Feb-10 17:01N 43°24' E 004°53'1 1.8
2018-Feb-10 16:30N 43°24' E 004°52'2 3.7
2018-Feb-10 16:00N 43°25' E 004°50'0 0.1
2018-Feb-10 15:30N 43°25' E 004°50'0 0.4
2018-Feb-10 14:59N 43°25' E 004°50'2 4.6
2018-Feb-10 14:31N 43°25' E 004°53'1 1.2
2018-Feb-10 13:56N 43°26' E 004°54'0 0.0
2018-Feb-10 13:29N 43°26' E 004°54'0 0.0
2018-Feb-10 13:00N 43°26' E 004°54'0 0.0
2018-Feb-10 12:29N 43°26' E 004°54'0 0.0
2018-Feb-10 12:01N 43°26' E 004°54'0 0.0
2018-Feb-10 11:30N 43°26' E 004°54'0 0.0
2018-Feb-10 10:57N 43°26' E 004°54'0 0.0
2018-Feb-10 10:31N 43°26' E 004°54'0 0.0
2018-Feb-10 09:58N 43°26' E 004°54'0 0.0
2018-Feb-10 09:31N 43°26' E 004°54'0 0.0
2018-Feb-10 09:00N 43°26' E 004°54'0 0.0
2018-Feb-10 08:30N 43°26' E 004°54'0 0.0
2018-Feb-10 08:00N 43°26' E 004°54'0 0.0
2018-Feb-10 07:30N 43°26' E 004°54'0 0.0
2018-Feb-10 07:00N 43°26' E 004°54'0 0.0
2018-Feb-10 06:30N 43°26' E 004°54'0 0.0
2018-Feb-10 06:00N 43°26' E 004°54'0 0.0
2018-Feb-10 05:31N 43°26' E 004°54'0 0.0
2018-Feb-10 05:00N 43°26' E 004°54'0 0.0
2018-Feb-10 04:27N 43°26' E 004°54'0 0.0
2018-Feb-10 04:01N 43°26' E 004°54'0 0.0
2018-Feb-10 03:29N 43°26' E 004°54'0 0.0
2018-Feb-10 03:01N 43°26' E 004°54'0 0.0
2018-Feb-10 02:31N 43°26' E 004°54'0 0.0
2018-Feb-10 02:00N 43°26' E 004°54'0 0.0
2018-Feb-10 01:30N 43°26' E 004°54'0 0.0
2018-Feb-10 01:00N 43°26' E 004°54'0 0.0
2018-Feb-10 00:30N 43°26' E 004°54'0 0.0
2018-Feb-10 00:00N 43°26' E 004°54'0 0.0
2018-Feb-09 23:29N 43°26' E 004°54'0 0.0
2018-Feb-09 23:00N 43°26' E 004°54'0 0.0
2018-Feb-09 22:44N 43°26' E 004°54'0 0.0
2018-Feb-09 19:01N 43°26' E 004°54'0 0.0
2018-Feb-09 17:01N 43°26' E 004°54'0 0.0
2018-Feb-09 15:31N 43°26' E 004°54'1 0.4
2018-Feb-09 12:30N 43°25' E 004°53'1 0.0
2018-Feb-09 00:00N 43°25' E 004°53'4 0.3
2018-Feb-08 12:00N 43°23' E 004°58'4 0.7
2018-Feb-08 07:00N 43°26' E 004°54'0 0.0
2018-Feb-08 04:00N 43°26' E 004°54'0 0.0
2018-Feb-08 03:00N 43°26' E 004°54'0 0.0
2018-Feb-08 02:30N 43°26' E 004°54'0 0.0
2018-Feb-08 02:01N 43°26' E 004°54'0 0.0
2018-Feb-08 01:31N 43°26' E 004°54'0 0.0
2018-Feb-08 01:00N 43°26' E 004°54'0 0.0
2018-Feb-08 00:30N 43°26' E 004°54'0 0.0
2018-Feb-08 00:00N 43°26' E 004°54'0 0.0
2018-Feb-07 23:30N 43°26' E 004°54'0 0.0
2018-Feb-07 23:00N 43°26' E 004°54'0 0.0
2018-Feb-07 22:30N 43°26' E 004°54'0 0.0
2018-Feb-07 22:01N 43°26' E 004°54'0 0.0
2018-Feb-07 21:31N 43°26' E 004°54'0 0.0
2018-Feb-07 09:30N 43°26' E 004°54'0 0.0
2018-Feb-07 08:59N 43°26' E 004°54'0 0.0
2018-Feb-07 08:30N 43°26' E 004°54'0 0.0
2018-Feb-07 08:00N 43°26' E 004°54'0 0.0
2018-Feb-07 07:30N 43°26' E 004°54'0 0.0
2018-Feb-07 06:59N 43°26' E 004°54'0 0.0
2018-Feb-07 06:31N 43°26' E 004°54'0 0.0
2018-Feb-07 05:30N 43°26' E 004°54'0 0.0
2018-Feb-07 05:00N 43°26' E 004°54'0 0.0
2018-Feb-07 04:30N 43°26' E 004°54'0 0.0
2018-Feb-07 04:00N 43°26' E 004°54'0 0.0
2018-Feb-07 03:30N 43°26' E 004°54'0 0.0
2018-Feb-07 03:00N 43°26' E 004°54'0 0.0
2018-Feb-07 02:30N 43°26' E 004°54'0 0.0
2018-Feb-07 01:00N 43°26' E 004°54'0 0.0
2018-Feb-07 00:30N 43°26' E 004°54'0 0.0
2018-Feb-06 23:59N 43°26' E 004°54'0 0.0
2018-Feb-06 23:30N 43°26' E 004°54'0 0.0
2018-Feb-06 23:00N 43°26' E 004°54'0 0.0
2018-Feb-06 22:30N 43°26' E 004°54'0 0.0
2018-Feb-06 22:00N 43°26' E 004°54'0 0.0
2018-Feb-06 21:30N 43°26' E 004°54'0 0.0
2018-Feb-06 20:59N 43°26' E 004°54'0 0.0
2018-Feb-06 20:28N 43°26' E 004°54'0 0.0
2018-Feb-06 20:00N 43°26' E 004°54'0 0.0
2018-Feb-06 19:29N 43°26' E 004°54'0 0.0
2018-Feb-06 19:00N 43°26' E 004°54'  

Dump ship's entire track history